Wilson Hook — P3TW9 — position and weather

sailwx.info

Track history (hours):
 
Tides and Currents Weather Stations Pressure Air Temp Water Temp Dewpoint Dewpoint Depression Visibility Wind Speed Wind Dir Waves Ship Positions

Wilson Hook

Last reported at 2018-Feb-18 03:37 UTC. Time now 2018-Feb-22 03:34 UTC.
Position N 36°27' E 014°32'.

Length 90 m; draft 5.7 m.

Type: Ship. MMSI: 210604000.

Date/timePositionNaut miles runAvg speedWind from/ knotsBaromVisibWave heightAir tempDewpointWater temp
2018-Feb-18 03:37N 36°27' E 014°32'111.0
2018-Feb-18 03:31N 36°27' E 014°30'610.9
2018-Feb-18 02:58N 36°27' E 014°23'510.5
2018-Feb-18 02:27N 36°27' E 014°16'610.4
2018-Feb-18 01:54N 36°29' E 014°09'  
2018-Feb-14 13:59N 36°00' W 005°13'613.6
2018-Feb-14 13:30N 35°59' W 005°20'612.9
2018-Feb-14 13:00N 35°57' W 005°28'285 9.4
2018-Feb-13 06:32N 38°56' W 010°07'111.4
2018-Feb-13 06:27N 38°57' W 010°07'511.1
2018-Feb-13 06:00N 39°02' W 010°07'  
2018-Feb-10 04:09N 49°49' W 003°21'3 9.7
2018-Feb-10 03:51N 49°50' W 003°17'10 9.5
2018-Feb-10 02:47N 49°55' W 003°03'3 9.7
2018-Feb-10 02:30N 49°56' W 002°60'5 9.6
2018-Feb-10 01:59N 49°58' W 002°53'4110.3
2018-Feb-09 22:00N 50°10' W 001°52'59 9.0
2018-Feb-09 15:30N 50°27' W 000°24'11 7.2
2018-Feb-09 14:00N 50°30' W 000°07'4 7.7
2018-Feb-09 13:30N 50°31' W 000°01'8 8.3
2018-Feb-09 12:30N 50°34' E 000°11'4 8.8
2018-Feb-09 12:00N 50°35' E 000°18'5 9.1
2018-Feb-09 11:30N 50°36' E 000°24'13 8.9
2018-Feb-09 10:00N 50°42' E 000°44'38 6.3
2018-Feb-09 04:00N 51°06' E 001°31'4 7.4
2018-Feb-09 03:30N 51°08' E 001°35'4 8.5
2018-Feb-09 03:00N 51°11' E 001°40'5 9.8
2018-Feb-09 02:30N 51°14' E 001°46'510.1
2018-Feb-09 02:00N 51°18' E 001°51'9 9.3
2018-Feb-09 01:00N 51°24' E 002°02'64 9.9
2018-Feb-08 18:30N 51°22' E 003°45'6 2.3
2018-Feb-08 16:00N 51°17' E 003°50'0 0.9
2018-Feb-08 15:30N 51°17' E 003°50'  
Track history (hours):
 
Tides and Currents Weather Stations Pressure Air Temp Water Temp Dewpoint Dewpoint Depression Visibility Wind Speed Wind Dir Waves Ship Positions

Wilson Hook

Last reported at 2018-Feb-18 03:37 UTC. Time now 2018-Feb-22 03:34 UTC.
Position N 36°27' E 014°32'.

Length 90 m; draft 5.7 m.

Type: Ship. MMSI: 210604000.

Date/timePositionNaut miles runAvg speedWind from/ knotsBaromVisibWave heightAir tempDewpointWater temp
2018-Feb-18 03:37N 36°27' E 014°32'111.0
2018-Feb-18 03:31N 36°27' E 014°30'610.9
2018-Feb-18 02:58N 36°27' E 014°23'510.5
2018-Feb-18 02:27N 36°27' E 014°16'610.4
2018-Feb-18 01:54N 36°29' E 014°09'  
2018-Feb-14 13:59N 36°00' W 005°13'613.6
2018-Feb-14 13:30N 35°59' W 005°20'612.9
2018-Feb-14 13:00N 35°57' W 005°28'285 9.4
2018-Feb-13 06:32N 38°56' W 010°07'111.4
2018-Feb-13 06:27N 38°57' W 010°07'511.1
2018-Feb-13 06:00N 39°02' W 010°07'  
2018-Feb-10 04:09N 49°49' W 003°21'3 9.7
2018-Feb-10 03:51N 49°50' W 003°17'10 9.5
2018-Feb-10 02:47N 49°55' W 003°03'3 9.7
2018-Feb-10 02:30N 49°56' W 002°60'5 9.6
2018-Feb-10 01:59N 49°58' W 002°53'4110.3
2018-Feb-09 22:00N 50°10' W 001°52'59 9.0
2018-Feb-09 15:30N 50°27' W 000°24'11 7.2
2018-Feb-09 14:00N 50°30' W 000°07'4 7.7
2018-Feb-09 13:30N 50°31' W 000°01'8 8.3
2018-Feb-09 12:30N 50°34' E 000°11'4 8.8
2018-Feb-09 12:00N 50°35' E 000°18'5 9.1
2018-Feb-09 11:30N 50°36' E 000°24'13 8.9
2018-Feb-09 10:00N 50°42' E 000°44'38 6.3
2018-Feb-09 04:00N 51°06' E 001°31'4 7.4
2018-Feb-09 03:30N 51°08' E 001°35'4 8.5
2018-Feb-09 03:00N 51°11' E 001°40'5 9.8
2018-Feb-09 02:30N 51°14' E 001°46'510.1
2018-Feb-09 02:00N 51°18' E 001°51'9 9.3
2018-Feb-09 01:00N 51°24' E 002°02'64 9.9
2018-Feb-08 18:30N 51°22' E 003°45'6 2.3
2018-Feb-08 16:00N 51°17' E 003°50'0 0.9
2018-Feb-08 15:30N 51°17' E 003°50'  

Dump ship's entire track history